Decoded Metar for ULLI (ST. PETERSBURG in RUSSIA) (IATA:LED) | Meteo·Mobile Aviation Weather
aviador You're here:

ULLI Decoded Metar

ST. PETERSBURG in RUSSIA
Report Time2019-02-17 07:30:00
UTC Time2019-02-17 07:59:14
Flight Rules vfr VFR
Wind270° at 23 Gusting to 33 kt
W.Decomp.*RWY 28: 21.7 kt HW 7.5 kt LCW
W.Rank270° ranks 1
Current wind is above 270° avg. (8.2)
Visibility9999 m
Phenomena:N/A
Clouds:Few 040 Hf
Expected CloudBase > 2,000 ft AGL from Temp-Dew spread
CeilingNone
Temp01°C (ISA -14)
Dew Point-4°C (70% RH)
AAT-9.8°C
QNH1001 hPa
Density Alt-1,217 ft
Elevation13 ft
Report Wrong Elevation
Raw Report
METAR ULLI 170730Z 27012G17MPS 9999 FEW040 01/M04 Q1001 R28L/190055
R28R/090060 NOSIG=

Extra information for ULLI:More info

Metar Taf Metar & Taf Last 4 Metars F.Rules Stats Wind Profile Meteogram Temp Stats Airport Information Weather charts Add Link Nearby VenuesMetar ALERT Operation Metar Decoded Social comments